createdAt,value
2017-11-18T00:00:25.622Z,88.72
2017-11-18T00:01:25.611Z,89.29
2017-11-18T00:02:25.600Z,89.95
2017-11-18T00:03:25.597Z,89.39
2017-11-18T00:04:25.579Z,89.48
2017-11-18T00:05:25.568Z,89.29
2017-11-18T00:06:25.563Z,89.10
2017-11-18T00:07:25.562Z,89.00
2017-11-18T00:08:25.539Z,89.29
2017-11-18T00:09:25.525Z,89.58
2017-11-18T00:10:25.514Z,89.86
2017-11-18T00:11:25.513Z,89.76
2017-11-18T00:12:25.499Z,89.86
2017-11-18T00:13:25.483Z,89.67
2017-11-18T00:14:25.471Z,90.33
2017-11-18T00:15:25.469Z,90.05
2017-11-18T00:16:25.450Z,90.62
2017-11-18T00:17:25.441Z,90.43
2017-11-18T00:18:25.428Z,90.43
2017-11-18T00:19:25.431Z,90.62
2017-11-18T00:20:25.414Z,90.52
2017-11-18T00:21:25.417Z,90.24
2017-11-18T00:22:25.394Z,90.52
2017-11-18T00:23:25.376Z,90.62
2017-11-18T00:24:25.380Z,90.52
2017-11-18T00:25:25.363Z,90.62
2017-11-18T00:26:25.343Z,91.09
2017-11-18T00:27:25.340Z,91.00
2017-11-18T00:28:25.338Z,91.00
2017-11-18T00:29:25.316Z,91.19
2017-11-18T00:30:25.301Z,90.71
2017-11-18T00:31:25.298Z,91.47
2017-11-18T00:32:25.282Z,91.00
2017-11-18T00:33:25.276Z,91.47
2017-11-18T00:34:25.256Z,91.47
2017-11-18T00:35:25.259Z,91.19
2017-11-18T00:36:25.238Z,91.47
2017-11-18T00:37:25.226Z,91.56
2017-11-18T00:38:25.214Z,92.23
2017-11-18T00:39:25.216Z,91.85
2017-11-18T00:40:25.194Z,92.04
2017-11-18T00:41:25.183Z,91.94
2017-11-18T00:42:25.180Z,91.66
2017-11-18T00:43:25.164Z,91.75
2017-11-18T00:44:25.155Z,91.38
2017-11-18T00:45:25.144Z,92.42
2017-11-18T00:46:25.137Z,92.23
2017-11-18T00:47:25.133Z,92.23
2017-11-18T00:48:25.124Z,92.04
2017-11-18T00:49:25.097Z,92.33
2017-11-18T00:50:25.083Z,92.14
2017-11-18T00:51:25.082Z,92.23
2017-11-18T00:52:25.064Z,92.33
2017-11-18T00:53:25.053Z,92.23
2017-11-18T00:54:25.040Z,92.42
2017-11-18T00:55:25.027Z,91.94
2017-11-18T00:56:25.025Z,92.33
2017-11-18T00:57:25.012Z,91.94
2017-11-18T00:58:24.999Z,91.28
2017-11-18T00:59:24.991Z,91.75
2017-11-18T01:00:24.973Z,91.28
2017-11-18T01:01:24.963Z,91.85
2017-11-18T01:02:24.956Z,91.28
2017-11-18T01:03:24.942Z,91.94
2017-11-18T01:04:24.930Z,91.19
2017-11-18T01:05:24.928Z,90.90
2017-11-18T01:06:24.923Z,91.09
2017-11-18T01:07:24.906Z,91.28
2017-11-18T01:08:24.889Z,91.75
2017-11-18T01:09:24.886Z,91.47
2017-11-18T01:10:24.871Z,91.19
2017-11-18T01:11:24.864Z,91.38
2017-11-18T01:12:24.845Z,91.19
2017-11-18T01:13:24.849Z,91.85
2017-11-18T01:14:24.834Z,91.94
2017-11-18T01:15:24.812Z,91.56
2017-11-18T01:16:24.801Z,91.75
2017-11-18T01:17:24.790Z,92.42
2017-11-18T01:18:24.784Z,92.61
2017-11-18T01:19:24.770Z,92.14
2017-11-18T01:20:24.764Z,92.42
2017-11-18T01:21:24.745Z,92.52
2017-11-18T01:22:24.737Z,93.08
2017-11-18T01:23:24.726Z,92.99
2017-11-18T01:24:24.713Z,92.04
2017-11-18T01:25:24.709Z,92.42
2017-11-18T01:26:24.696Z,92.04
2017-11-18T01:27:24.681Z,92.42
2017-11-18T01:28:24.672Z,91.47
2017-11-18T01:29:24.666Z,90.81
2017-11-18T01:30:24.652Z,90.90
2017-11-18T01:31:24.639Z,90.90
2017-11-18T01:32:24.629Z,91.09
2017-11-18T01:33:24.617Z,91.94
2017-11-18T01:34:24.618Z,92.42
2017-11-18T01:35:24.609Z,91.94
2017-11-18T01:36:24.586Z,91.94
2017-11-18T01:37:24.582Z,92.33
2017-11-18T01:38:24.578Z,92.04
2017-11-18T01:39:24.553Z,92.90
2017-11-18T01:40:24.541Z,93.08
2017-11-18T01:41:24.548Z,92.80
2017-11-18T01:42:24.518Z,92.33
2017-11-18T01:43:24.507Z,93.84
2017-11-18T01:44:24.496Z,93.56
2017-11-18T01:45:24.484Z,93.27
2017-11-18T01:46:24.477Z,92.04
2017-11-18T01:47:24.467Z,93.08
2017-11-18T01:48:24.462Z,92.99
2017-11-18T01:49:24.445Z,93.18
2017-11-18T01:50:24.430Z,93.27
2017-11-18T01:51:24.421Z,93.94
2017-11-18T01:52:24.411Z,93.56
2017-11-18T01:53:24.406Z,92.90
2017-11-18T01:54:24.385Z,92.23
2017-11-18T01:55:24.391Z,92.33
2017-11-18T01:56:24.365Z,92.42
2017-11-18T01:57:24.362Z,92.90
2017-11-18T01:58:24.344Z,92.52
2017-11-18T01:59:24.341Z,92.90
2017-11-18T02:00:24.319Z,93.08
2017-11-18T02:01:24.312Z,92.80
2017-11-18T02:02:24.298Z,93.56
2017-11-18T02:03:24.288Z,93.08
2017-11-18T02:04:24.283Z,92.99
2017-11-18T02:05:24.267Z,93.08
2017-11-18T02:06:24.268Z,93.27
2017-11-18T02:07:24.246Z,94.60
2017-11-18T02:08:24.250Z,92.71
2017-11-18T02:09:24.222Z,92.90
2017-11-18T02:10:24.215Z,93.37
2017-11-18T02:11:24.200Z,94.60
2017-11-18T02:12:24.198Z,92.23
2017-11-18T02:13:24.180Z,92.42
2017-11-18T02:14:24.168Z,92.04
2017-11-18T02:15:24.155Z,92.04
2017-11-18T02:16:24.156Z,92.04
2017-11-18T02:17:24.135Z,92.04
2017-11-18T02:18:24.121Z,92.52
2017-11-18T02:19:24.113Z,92.23
2017-11-18T02:20:24.109Z,91.94
2017-11-18T02:21:24.099Z,91.85
2017-11-18T02:22:24.078Z,91.85
2017-11-18T02:23:24.073Z,91.28
2017-11-18T02:24:24.067Z,91.09
2017-11-18T02:25:24.053Z,91.19
2017-11-18T02:26:24.035Z,92.23
2017-11-18T02:27:24.032Z,92.04
2017-11-18T02:28:24.016Z,92.42
2017-11-18T02:29:24.001Z,91.94
2017-11-18T02:30:23.993Z,91.85
2017-11-18T02:31:23.986Z,92.42
2017-11-18T02:32:23.979Z,92.90
2017-11-18T02:33:23.967Z,92.42
2017-11-18T02:34:23.947Z,93.08
2017-11-18T02:35:23.936Z,93.18
2017-11-18T02:36:23.945Z,92.80
2017-11-18T02:37:23.922Z,92.23
2017-11-18T02:38:23.909Z,92.04
2017-11-18T02:39:23.898Z,92.04
2017-11-18T02:40:23.886Z,91.94
2017-11-18T02:41:23.878Z,92.04
2017-11-18T02:42:23.859Z,91.75
2017-11-18T02:43:23.855Z,93.27
2017-11-18T02:44:23.840Z,92.23
2017-11-18T02:45:23.827Z,92.99
2017-11-18T02:46:23.822Z,92.71
2017-11-18T02:47:23.817Z,92.52
2017-11-18T02:48:23.806Z,92.33
2017-11-18T02:49:23.788Z,92.52
2017-11-18T02:50:23.814Z,92.42
2017-11-18T02:51:23.768Z,92.42
2017-11-18T02:52:23.754Z,92.52
2017-11-18T02:53:23.741Z,92.80
2017-11-18T02:54:23.729Z,93.18
2017-11-18T02:55:23.714Z,92.80
2017-11-18T02:56:23.704Z,92.99
2017-11-18T02:57:23.698Z,92.71
2017-11-18T02:58:23.679Z,93.13
2017-11-18T02:59:23.678Z,92.99
2017-11-18T03:00:23.658Z,92.90
2017-11-18T03:01:23.647Z,92.99
2017-11-18T03:02:23.637Z,93.08
2017-11-18T03:03:23.633Z,92.94
2017-11-18T03:04:23.622Z,92.85
2017-11-18T03:05:23.615Z,92.90
2017-11-18T03:06:23.590Z,93.37
2017-11-18T03:07:23.580Z,92.99
2017-11-18T03:08:23.569Z,93.46
2017-11-18T03:09:23.564Z,92.71
2017-11-18T03:10:23.546Z,92.71
2017-11-18T03:11:23.534Z,92.33
2017-11-18T03:12:23.536Z,92.14
2017-11-18T03:13:23.518Z,92.80
2017-11-18T03:14:23.500Z,93.56
2017-11-18T03:15:23.506Z,93.75
2017-11-18T03:16:23.477Z,92.99
2017-11-18T03:17:23.474Z,92.90
2017-11-18T03:18:23.465Z,92.23
2017-11-18T03:19:23.451Z,92.90
2017-11-18T03:20:23.442Z,92.04
2017-11-18T03:21:23.432Z,92.14
2017-11-18T03:22:23.410Z,92.42
2017-11-18T03:23:23.411Z,93.08
2017-11-18T03:24:23.389Z,91.94
2017-11-18T03:25:23.387Z,92.42
2017-11-18T03:26:23.367Z,91.85
2017-11-18T03:27:23.363Z,92.42
2017-11-18T03:28:23.345Z,92.04
2017-11-18T03:29:23.339Z,91.75
2017-11-18T03:30:23.327Z,91.75
2017-11-18T03:31:23.321Z,93.08
2017-11-18T03:32:23.308Z,92.90
2017-11-18T03:33:23.290Z,92.90
2017-11-18T03:34:23.276Z,92.14
2017-11-18T03:35:23.267Z,91.38
2017-11-18T03:36:23.266Z,91.94
2017-11-18T03:37:23.266Z,91.75
2017-11-18T03:38:23.235Z,92.23
2017-11-18T03:39:23.223Z,92.04
2017-11-18T03:40:23.221Z,91.85
2017-11-18T03:41:23.202Z,90.52
2017-11-18T03:42:23.194Z,90.24
2017-11-18T03:43:23.182Z,89.76
2017-11-18T03:44:23.173Z,91.28
2017-11-18T03:45:23.157Z,90.81
2017-11-18T03:46:23.162Z,91.56
2017-11-18T03:47:23.135Z,90.43
2017-11-18T03:48:23.130Z,91.09
2017-11-18T03:49:23.122Z,91.00
2017-11-18T03:50:23.116Z,89.86
2017-11-18T03:51:23.095Z,90.24
2017-11-18T03:52:23.079Z,90.71
2017-11-18T03:53:23.068Z,91.19
2017-11-18T03:54:23.058Z,91.09
2017-11-18T03:55:23.054Z,90.62
2017-11-18T03:56:23.037Z,91.00
2017-11-18T03:57:23.026Z,90.71
2017-11-18T03:58:23.016Z,90.62
2017-11-18T03:59:23.010Z,90.71
2017-11-18T04:00:22.999Z,91.66
2017-11-18T04:01:22.984Z,91.56
2017-11-18T04:02:22.970Z,91.75
2017-11-18T04:03:22.962Z,91.85
2017-11-18T04:04:22.955Z,91.56
2017-11-18T04:05:22.942Z,91.47
2017-11-18T04:06:22.930Z,89.86
2017-11-18T04:07:22.916Z,90.05
2017-11-18T04:08:22.905Z,91.28
2017-11-18T04:09:22.896Z,91.71
2017-11-18T04:10:22.890Z,92.85
2017-11-18T04:11:22.871Z,94.84
2017-11-18T04:12:22.860Z,94.27
2017-11-18T04:13:22.861Z,94.84
2017-11-18T04:14:22.835Z,94.37
2017-11-18T04:15:22.831Z,93.61
2017-11-18T04:16:22.813Z,94.18
2017-11-18T04:17:22.802Z,94.46
2017-11-18T04:18:22.797Z,93.70
2017-11-18T04:19:22.777Z,93.41
2017-11-18T04:20:22.771Z,93.70
2017-11-18T04:21:22.752Z,94.46
2017-11-18T04:22:22.740Z,95.41
2017-11-18T04:23:22.727Z,95.03
2017-11-18T04:24:22.730Z,94.74
2017-11-18T04:25:22.706Z,95.12
2017-11-18T04:26:22.706Z,94.27
2017-11-18T04:27:22.680Z,93.51
2017-11-18T04:28:22.674Z,93.51
2017-11-18T04:29:22.659Z,93.70
2017-11-18T04:30:22.658Z,93.04
2017-11-18T04:31:22.631Z,92.85
2017-11-18T04:32:22.622Z,92.94
2017-11-18T04:33:22.615Z,93.04
2017-11-18T04:34:22.599Z,93.61
2017-11-18T04:35:22.593Z,93.23
2017-11-18T04:36:22.582Z,92.85
2017-11-18T04:37:22.561Z,92.66
2017-11-18T04:38:22.548Z,93.13
2017-11-18T04:39:22.552Z,93.04
2017-11-18T04:40:22.526Z,93.84
2017-11-18T04:41:22.513Z,92.66
2017-11-18T04:42:22.511Z,92.80
2017-11-18T04:43:22.489Z,92.90
2017-11-18T04:44:22.481Z,92.90
2017-11-18T04:45:22.468Z,92.71
2017-11-18T04:46:22.455Z,92.52
2017-11-18T04:47:22.443Z,92.42
2017-11-18T04:48:22.432Z,92.61
2017-11-18T04:49:22.434Z,92.61
2017-11-18T04:50:22.411Z,92.33
2017-11-18T04:51:22.399Z,91.94
2017-11-18T04:52:22.393Z,92.04
2017-11-18T04:53:22.374Z,92.61
2017-11-18T04:54:22.370Z,92.23
2017-11-18T04:55:22.351Z,91.66
2017-11-18T04:56:22.339Z,92.52
2017-11-18T04:57:22.335Z,91.94
2017-11-18T04:58:22.317Z,91.85
2017-11-18T04:59:22.311Z,91.66
2017-11-18T05:00:22.294Z,91.94
2017-11-18T05:01:22.291Z,91.94
2017-11-18T05:02:22.276Z,92.23
2017-11-18T05:03:22.258Z,92.23
2017-11-18T05:04:22.248Z,91.75
2017-11-18T05:05:22.238Z,92.04
2017-11-18T05:06:22.231Z,91.56
2017-11-18T05:07:22.214Z,92.14
2017-11-18T05:08:22.202Z,91.66
2017-11-18T05:09:22.191Z,91.85
2017-11-18T05:10:22.178Z,92.23
2017-11-18T05:11:22.168Z,91.56
2017-11-18T05:12:22.157Z,91.75
2017-11-18T05:13:22.146Z,91.94
2017-11-18T05:14:22.133Z,91.94
2017-11-18T05:15:22.137Z,92.23
2017-11-18T05:16:22.120Z,91.85
2017-11-18T05:17:22.107Z,91.85
2017-11-18T05:18:22.090Z,91.94
2017-11-18T05:19:22.085Z,92.52
2017-11-18T05:20:22.069Z,92.04
2017-11-18T05:21:22.059Z,91.94
2017-11-18T05:22:22.053Z,91.85
2017-11-18T05:23:22.046Z,91.00
2017-11-18T05:24:22.033Z,91.47
2017-11-18T05:25:22.010Z,91.85
2017-11-18T05:26:21.998Z,91.09
2017-11-18T05:27:21.989Z,91.28
2017-11-18T05:28:21.975Z,92.23
2017-11-18T05:29:21.974Z,91.47
2017-11-18T05:30:21.955Z,92.61
2017-11-18T05:31:21.942Z,92.61
2017-11-18T05:32:21.930Z,92.14
2017-11-18T05:33:21.934Z,91.75
2017-11-18T05:34:21.908Z,92.52
2017-11-18T05:35:21.896Z,91.75
2017-11-18T05:36:21.893Z,91.09
2017-11-18T05:37:21.882Z,91.66
2017-11-18T05:38:21.863Z,91.38
2017-11-18T05:39:21.860Z,92.04
2017-11-18T05:40:21.842Z,91.75
2017-11-18T05:41:21.835Z,92.33
2017-11-18T05:42:21.816Z,92.14
2017-11-18T05:43:21.812Z,91.94
2017-11-18T05:44:21.798Z,91.47
2017-11-18T05:45:21.791Z,91.75
2017-11-18T05:46:21.809Z,92.33
2017-11-18T05:47:21.767Z,92.33
2017-11-18T05:48:21.763Z,91.75
2017-11-18T05:49:21.747Z,92.23
2017-11-18T05:50:21.737Z,92.04
2017-11-18T05:51:21.720Z,91.66
2017-11-18T05:52:21.718Z,91.66
2017-11-18T05:53:21.699Z,92.04
2017-11-18T05:54:21.682Z,91.94
2017-11-18T05:55:21.685Z,91.38
2017-11-18T05:56:21.664Z,91.19
2017-11-18T05:57:21.651Z,92.23
2017-11-18T05:58:21.643Z,92.04
2017-11-18T05:59:21.628Z,91.66
2017-11-18T06:00:21.626Z,91.75
2017-11-18T06:01:21.614Z,91.94
2017-11-18T06:02:21.603Z,91.85
2017-11-18T06:03:21.584Z,91.85
2017-11-18T06:04:21.573Z,91.47
2017-11-18T06:05:21.568Z,92.04
2017-11-18T06:06:21.549Z,91.75
2017-11-18T06:07:21.543Z,91.28
2017-11-18T06:08:21.528Z,91.94
2017-11-18T06:09:21.525Z,91.47
2017-11-18T06:10:21.504Z,92.23
2017-11-18T06:11:21.502Z,92.23
2017-11-18T06:12:21.484Z,91.09
2017-11-18T06:13:21.471Z,91.94
2017-11-18T06:14:21.469Z,91.38
2017-11-18T06:15:21.465Z,91.19
2017-11-18T06:16:21.459Z,91.19
2017-11-18T06:17:21.441Z,91.94
2017-11-18T06:18:21.417Z,92.14
2017-11-18T06:19:21.420Z,91.94
2017-11-18T06:20:21.398Z,91.66
2017-11-18T06:21:21.392Z,91.56
2017-11-18T06:22:21.382Z,91.47
2017-11-18T06:23:21.360Z,91.85
2017-11-18T06:24:21.350Z,92.04
2017-11-18T06:25:21.354Z,91.47
2017-11-18T06:26:21.331Z,92.33
2017-11-18T06:27:21.317Z,91.66
2017-11-18T06:28:21.307Z,92.23
2017-11-18T06:29:21.305Z,90.90
2017-11-18T06:30:21.289Z,91.19
2017-11-18T06:31:21.274Z,90.33
2017-11-18T06:32:21.272Z,90.33
2017-11-18T06:33:21.252Z,90.81
2017-11-18T06:34:21.241Z,90.33
2017-11-18T06:35:21.243Z,90.24
2017-11-18T06:36:21.225Z,90.05
2017-11-18T06:37:21.209Z,90.05
2017-11-18T06:38:21.196Z,90.43
2017-11-18T06:39:21.186Z,90.24
2017-11-18T06:40:21.190Z,91.28
2017-11-18T06:41:21.172Z,91.47
2017-11-18T06:42:21.160Z,90.24
2017-11-18T06:43:21.143Z,90.43
2017-11-18T06:44:21.139Z,90.14
2017-11-18T06:45:21.131Z,90.90
2017-11-18T06:46:21.111Z,90.43
2017-11-18T06:47:21.107Z,89.86
2017-11-18T06:48:21.095Z,90.33
2017-11-18T06:49:21.078Z,90.05
2017-11-18T06:50:21.080Z,90.43
2017-11-18T06:51:21.057Z,90.81
2017-11-18T06:52:21.046Z,90.90
2017-11-18T06:53:21.039Z,91.28
2017-11-18T06:54:21.023Z,90.14
2017-11-18T06:55:21.016Z,90.33
2017-11-18T06:56:21.006Z,89.48
2017-11-18T06:57:20.997Z,90.05
2017-11-18T06:58:20.981Z,89.86
2017-11-18T06:59:20.969Z,89.76
2017-11-18T07:00:20.957Z,90.05
2017-11-18T07:01:20.964Z,89.76
2017-11-18T07:02:20.937Z,89.95
2017-11-18T07:03:20.935Z,89.76
2017-11-18T07:04:20.914Z,89.48
2017-11-18T07:05:20.903Z,90.14
2017-11-18T07:06:20.897Z,89.76
2017-11-18T07:07:20.885Z,89.39
2017-11-18T07:08:20.874Z,88.43
2017-11-18T07:09:20.860Z,88.34
2017-11-18T07:10:20.849Z,88.62
2017-11-18T07:11:20.843Z,89.00
2017-11-18T07:12:20.828Z,88.43
2017-11-18T07:13:20.819Z,88.53
2017-11-18T07:14:20.805Z,88.24
2017-11-18T07:15:20.800Z,88.62
2017-11-18T07:16:20.786Z,88.72
2017-11-18T07:17:20.780Z,88.81
2017-11-18T07:18:20.779Z,88.91
2017-11-18T07:19:20.761Z,88.53
2017-11-18T07:20:20.768Z,88.15
2017-11-18T07:21:20.736Z,88.43
2017-11-18T07:22:20.740Z,89.29
2017-11-18T07:23:20.711Z,88.62
2017-11-18T07:24:20.701Z,88.72
2017-11-18T07:25:20.689Z,88.53
2017-11-18T07:26:20.679Z,88.24
2017-11-18T07:27:20.663Z,88.06
2017-11-18T07:28:20.652Z,88.24
2017-11-18T07:29:20.641Z,89.48
2017-11-18T07:30:20.643Z,88.06
2017-11-18T07:31:20.632Z,88.91
2017-11-18T07:32:20.606Z,89.00
2017-11-18T07:33:20.602Z,88.43
2017-11-18T07:34:20.602Z,87.68
2017-11-18T07:35:20.574Z,87.87
2017-11-18T07:36:20.564Z,88.24
2017-11-18T07:37:20.552Z,88.24
2017-11-18T07:38:20.540Z,89.58
2017-11-18T07:39:20.528Z,88.34
2017-11-18T07:40:20.532Z,88.06
2017-11-18T07:41:20.517Z,87.87
2017-11-18T07:42:20.510Z,87.30
2017-11-18T07:43:20.490Z,88.06
2017-11-18T07:44:20.474Z,88.72
2017-11-18T07:45:20.469Z,88.24
2017-11-18T07:46:20.450Z,88.15
2017-11-18T07:47:20.441Z,88.24
2017-11-18T07:48:20.429Z,88.15
2017-11-18T07:49:20.427Z,87.96
2017-11-18T07:50:20.406Z,88.15
2017-11-18T07:51:20.395Z,87.96
2017-11-18T07:52:20.395Z,87.58
2017-11-18T07:53:20.374Z,87.20
2017-11-18T07:54:20.372Z,87.39
2017-11-18T07:55:20.353Z,87.30
2017-11-18T07:56:20.340Z,87.20
2017-11-18T07:57:20.332Z,87.39
2017-11-18T07:58:20.333Z,87.11
2017-11-18T07:59:20.316Z,87.30
2017-11-18T08:00:20.297Z,87.58
2017-11-18T08:01:20.287Z,86.49
2017-11-18T08:02:20.289Z,86.58
2017-11-18T08:03:20.265Z,86.58
2017-11-18T08:04:20.254Z,86.35
2017-11-18T08:05:20.248Z,85.68
2017-11-18T08:06:20.249Z,86.35
2017-11-18T08:07:20.234Z,86.44
2017-11-18T08:08:20.210Z,87.11
2017-11-18T08:09:20.210Z,87.01
2017-11-18T08:10:20.194Z,86.54
2017-11-18T08:11:20.187Z,86.91
2017-11-18T08:12:20.172Z,87.39
2017-11-18T08:13:20.165Z,87.77
2017-11-18T08:14:20.147Z,88.06
2017-11-18T08:15:20.133Z,87.77
2017-11-18T08:16:20.127Z,87.77
2017-11-18T08:17:20.112Z,87.77
2017-11-18T08:18:20.100Z,87.11
2017-11-18T08:19:20.088Z,87.39
2017-11-18T08:20:20.097Z,86.44
2017-11-18T08:21:20.083Z,87.01
2017-11-18T08:22:20.058Z,86.91
2017-11-18T08:23:20.051Z,87.01
2017-11-18T08:24:20.053Z,87.77
2017-11-18T08:25:20.026Z,87.39
2017-11-18T08:26:20.026Z,87.39
2017-11-18T08:27:20.002Z,87.58
2017-11-18T08:28:19.997Z,87.58
2017-11-18T08:29:19.996Z,87.49
2017-11-18T08:30:19.969Z,87.11
2017-11-18T08:31:19.968Z,87.20
2017-11-18T08:32:19.949Z,87.20
2017-11-18T08:33:19.943Z,87.11
2017-11-18T08:34:19.933Z,87.39
2017-11-18T08:35:19.917Z,86.54
2017-11-18T08:36:19.904Z,86.35
2017-11-18T08:37:19.900Z,86.44
2017-11-18T08:38:19.895Z,86.35
2017-11-18T08:39:19.870Z,86.96
2017-11-18T08:40:19.860Z,87.24
2017-11-18T08:41:19.855Z,86.91
2017-11-18T08:42:19.840Z,86.39
2017-11-18T08:43:19.831Z,86.63
2017-11-18T08:44:19.817Z,87.72
2017-11-18T08:45:19.815Z,86.49
2017-11-18T08:46:19.794Z,86.11
2017-11-18T08:47:19.794Z,86.01
2017-11-18T08:48:19.775Z,86.20
2017-11-18T08:49:19.763Z,86.39
2017-11-18T08:50:19.766Z,85.72
2017-11-18T08:51:19.756Z,85.72
2017-11-18T08:52:19.731Z,85.35
2017-11-18T08:53:19.721Z,86.11
2017-11-18T08:54:19.721Z,86.49
2017-11-18T08:55:19.704Z,85.44
2017-11-18T08:56:19.694Z,85.16
2017-11-18T08:57:19.685Z,84.21
2017-11-18T08:58:19.681Z,85.35
2017-11-18T08:59:19.657Z,84.97
2017-11-18T09:00:19.648Z,86.20
2017-11-18T09:01:19.645Z,86.68
2017-11-18T09:02:19.625Z,85.35
2017-11-18T09:03:19.614Z,85.25
2017-11-18T09:04:19.603Z,85.72
2017-11-18T09:05:19.602Z,84.40
2017-11-18T09:06:19.586Z,84.87
2017-11-18T09:07:19.585Z,85.91
2017-11-18T09:08:19.561Z,85.35
2017-11-18T09:09:19.552Z,85.25
2017-11-18T09:10:19.542Z,85.06
2017-11-18T09:11:19.540Z,84.30
2017-11-18T09:12:19.525Z,84.30
2017-11-18T09:13:19.526Z,84.68
2017-11-18T09:14:19.508Z,84.78
2017-11-18T09:15:19.489Z,84.59
2017-11-18T09:16:19.477Z,86.20
2017-11-18T09:17:19.469Z,87.53
2017-11-18T09:18:19.461Z,85.16
2017-11-18T09:19:19.462Z,86.30
2017-11-18T09:20:19.468Z,86.63
2017-11-18T09:21:19.435Z,84.11
2017-11-18T09:22:19.429Z,83.16
2017-11-18T09:23:19.404Z,84.68
2017-11-18T09:24:19.395Z,83.07
2017-11-18T09:25:19.385Z,84.40
2017-11-18T09:26:19.391Z,83.92
2017-11-18T09:27:19.368Z,84.49
2017-11-18T09:28:19.361Z,84.40
2017-11-18T09:29:19.353Z,85.25
2017-11-18T09:30:19.336Z,85.82
2017-11-18T09:31:19.322Z,85.25
2017-11-18T09:32:19.326Z,86.11
2017-11-18T09:33:19.302Z,84.68
2017-11-18T09:34:19.300Z,84.40
2017-11-18T09:35:19.281Z,84.30
2017-11-18T09:36:19.281Z,83.92
2017-11-18T09:37:19.260Z,83.83
2017-11-18T09:38:19.263Z,83.83
2017-11-18T09:39:19.238Z,83.54
2017-11-18T09:40:19.230Z,83.64
2017-11-18T09:41:19.218Z,84.01
2017-11-18T09:42:19.215Z,83.92
2017-11-18T09:43:19.196Z,85.49
2017-11-18T09:44:19.189Z,84.53
2017-11-18T09:45:19.182Z,85.20
2017-11-18T09:46:19.173Z,83.78
2017-11-18T09:47:19.170Z,83.78
2017-11-18T09:48:19.152Z,85.39
2017-11-18T09:49:19.144Z,85.39
2017-11-18T09:50:19.131Z,84.63
2017-11-18T09:51:19.116Z,83.78
2017-11-18T09:52:19.116Z,83.49
2017-11-18T09:53:19.096Z,83.20
2017-11-18T09:54:19.084Z,83.20
2017-11-18T09:55:19.086Z,83.49
2017-11-18T09:56:19.075Z,84.16
2017-11-18T09:57:19.068Z,84.34
2017-11-18T09:58:19.048Z,82.73
2017-11-18T09:59:19.036Z,82.82
2017-11-18T10:00:19.034Z,83.30
2017-11-18T10:01:19.015Z,84.11
2017-11-18T10:02:19.009Z,84.11
2017-11-18T10:03:19.006Z,84.59
2017-11-18T10:04:19.014Z,84.87
2017-11-18T10:05:18.979Z,84.97
2017-11-18T10:06:18.977Z,84.21
2017-11-18T10:07:18.956Z,84.30
2017-11-18T10:08:18.949Z,84.49
2017-11-18T10:09:18.938Z,85.44
2017-11-18T10:10:18.922Z,86.01
2017-11-18T10:11:18.916Z,87.38
2017-11-18T10:12:18.901Z,84.25
2017-11-18T10:13:18.897Z,83.87
2017-11-18T10:14:18.879Z,82.92
2017-11-18T10:15:18.870Z,83.49
2017-11-18T10:16:18.870Z,82.73
2017-11-18T10:17:18.853Z,82.64
2017-11-18T10:18:18.841Z,84.06
2017-11-18T10:19:18.833Z,83.11
2017-11-18T10:20:18.820Z,83.11
2017-11-18T10:21:18.809Z,82.64
2017-11-18T10:22:18.812Z,83.87
2017-11-18T10:23:18.795Z,82.73
2017-11-18T10:24:18.775Z,81.87
2017-11-18T10:25:18.769Z,81.97
2017-11-18T10:26:18.753Z,81.21
2017-11-18T10:27:18.744Z,81.30
2017-11-18T10:28:18.751Z,80.55
2017-11-18T10:29:18.724Z,80.93
2017-11-18T10:30:18.722Z,80.93
2017-11-18T10:31:18.708Z,81.21
2017-11-18T10:32:18.703Z,81.87
2017-11-18T10:33:18.692Z,81.97
2017-11-18T10:34:18.684Z,81.97
2017-11-18T10:35:18.663Z,81.30
2017-11-18T10:36:18.661Z,81.02
2017-11-18T10:37:18.642Z,81.02
2017-11-18T10:38:18.633Z,81.30
2017-11-18T10:39:18.623Z,81.40
2017-11-18T10:40:18.622Z,81.87
2017-11-18T10:41:18.609Z,82.73
2017-11-18T10:42:18.593Z,81.87
2017-11-18T10:43:18.591Z,81.97
2017-11-18T10:44:18.586Z,81.78
2017-11-18T10:45:18.565Z,82.07
2017-11-18T10:46:18.552Z,82.07
2017-11-18T10:47:18.543Z,81.87
2017-11-18T10:48:18.547Z,81.78
2017-11-18T10:49:18.538Z,82.82
2017-11-18T10:50:18.538Z,81.21
2017-11-18T10:51:18.504Z,81.21
2017-11-18T10:52:18.494Z,81.68
2017-11-18T10:53:18.493Z,81.12
2017-11-18T10:54:18.484Z,82.16
2017-11-18T10:55:18.464Z,81.87
2017-11-18T10:56:18.454Z,83.49
2017-11-18T10:57:18.444Z,81.02
2017-11-18T10:58:18.441Z,79.60
2017-11-18T10:59:18.438Z,78.74
2017-11-18T11:00:18.414Z,79.50
2017-11-18T11:01:18.417Z,79.60
2017-11-18T11:02:18.398Z,78.83
2017-11-18T11:03:18.409Z,80.07
2017-11-18T11:04:18.383Z,80.55
2017-11-18T11:05:18.370Z,78.36
2017-11-18T11:06:18.362Z,79.79
2017-11-18T11:07:18.344Z,79.97
2017-11-18T11:08:18.334Z,77.03
2017-11-18T11:09:18.325Z,77.60
2017-11-18T11:10:18.315Z,76.46
2017-11-18T11:11:18.311Z,76.18
2017-11-18T11:12:18.295Z,75.89
2017-11-18T11:13:18.290Z,77.51
2017-11-18T11:14:18.275Z,76.18
2017-11-18T11:15:18.271Z,77.98
2017-11-18T11:16:18.256Z,76.18
2017-11-18T11:17:18.250Z,78.64
2017-11-18T11:18:18.238Z,77.89
2017-11-18T11:19:18.229Z,76.93
2017-11-18T11:20:18.216Z,77.17
2017-11-18T11:21:18.216Z,76.84
2017-11-18T11:22:18.205Z,77.60
2017-11-18T11:23:18.199Z,77.36
2017-11-18T11:24:18.178Z,77.70
2017-11-18T11:25:18.169Z,76.46
2017-11-18T11:26:18.158Z,76.84
2017-11-18T11:27:18.147Z,80.26
2017-11-18T11:28:18.137Z,79.73
2017-11-18T11:29:18.135Z,79.92
2017-11-18T11:30:18.119Z,79.06
2017-11-18T11:31:18.108Z,79.16
2017-11-18T11:32:18.097Z,78.30
2017-11-18T11:33:18.096Z,76.88
2017-11-18T11:34:18.084Z,76.78
2017-11-18T11:35:18.075Z,77.92
2017-11-18T11:36:18.059Z,76.69
2017-11-18T11:37:18.048Z,74.98
2017-11-18T11:38:18.040Z,76.40
2017-11-18T11:39:18.033Z,75.93
2017-11-18T11:40:18.019Z,76.03
2017-11-18T11:41:18.018Z,76.50
2017-11-18T11:42:18.007Z,75.64
2017-11-18T11:43:17.990Z,76.18
2017-11-18T11:44:17.981Z,74.98
2017-11-18T11:45:17.978Z,75.04
2017-11-18T11:46:17.966Z,76.56
2017-11-18T11:47:17.961Z,78.83
2017-11-18T11:48:17.941Z,76.50
2017-11-18T11:49:17.937Z,75.70
2017-11-18T11:50:17.921Z,77.41
2017-11-18T11:51:17.920Z,77.79
2017-11-18T11:52:17.910Z,77.17
2017-11-18T11:53:17.892Z,77.51
2017-11-18T11:54:17.885Z,76.08
2017-11-18T11:55:17.878Z,75.99
2017-11-18T11:56:17.862Z,77.22
2017-11-18T11:57:17.859Z,76.65
2017-11-18T11:58:17.850Z,76.08
2017-11-18T11:59:17.842Z,76.46
2017-11-18T12:00:17.836Z,76.18
2017-11-18T12:01:17.818Z,76.37
2017-11-18T12:02:17.803Z,76.08
2017-11-18T12:03:17.799Z,75.89
2017-11-18T12:04:17.783Z,78.45
2017-11-18T12:05:17.783Z,78.74
2017-11-18T12:06:17.764Z,79.50
2017-11-18T12:07:17.759Z,78.08
2017-11-18T12:08:17.744Z,79.12
2017-11-18T12:09:17.734Z,77.51
2017-11-18T12:10:17.723Z,75.60
2017-11-18T12:11:17.729Z,77.79
2017-11-18T12:12:17.704Z,80.93
2017-11-18T12:13:17.698Z,79.60
2017-11-18T12:14:17.684Z,80.68
2017-11-18T12:15:17.680Z,79.16
2017-11-18T12:16:17.670Z,78.64
2017-11-18T12:17:17.655Z,77.51
2017-11-18T12:18:17.649Z,78.36
2017-11-18T12:19:17.640Z,78.36
2017-11-18T12:20:17.623Z,81.30
2017-11-18T12:21:17.619Z,79.97
2017-11-18T12:22:17.602Z,82.07
2017-11-18T12:23:17.593Z,81.87
2017-11-18T12:24:17.585Z,80.64
2017-11-18T12:25:17.573Z,80.07
2017-11-18T12:26:17.562Z,78.27
2017-11-18T12:27:17.556Z,78.08
2017-11-18T12:28:17.557Z,80.07
2017-11-18T12:29:17.537Z,81.68
2017-11-18T12:30:17.528Z,78.55
2017-11-18T12:31:17.515Z,79.69
2017-11-18T12:32:17.514Z,80.26
2017-11-18T12:33:17.491Z,80.83
2017-11-18T12:34:17.489Z,79.79
2017-11-18T12:35:17.479Z,80.16
2017-11-18T12:36:17.460Z,79.79
2017-11-18T12:37:17.449Z,78.93
2017-11-18T12:38:17.450Z,79.41
2017-11-18T12:39:17.436Z,78.74
2017-11-18T12:40:17.417Z,81.06
2017-11-18T12:41:17.413Z,79.16
2017-11-18T12:42:17.400Z,78.27
2017-11-18T12:43:17.400Z,76.93
2017-11-18T12:44:17.375Z,76.08
2017-11-18T12:45:17.371Z,76.08
2017-11-18T12:46:17.356Z,76.27
2017-11-18T12:47:17.344Z,77.22
2017-11-18T12:48:17.342Z,77.22
2017-11-18T12:49:17.324Z,79.12
2017-11-18T12:50:17.313Z,79.41
2017-11-18T12:51:17.306Z,78.83
2017-11-18T12:52:17.294Z,78.83